sensor_id;sensor_type;location;lat;lon;timestamp;temperature;humidity
25214;DHT22;13160;51.834;4.706;2022-12-16T00:01:09;1.50;99.90
25214;DHT22;13160;51.834;4.706;2022-12-16T00:03:40;1.50;99.90
25214;DHT22;13160;51.834;4.706;2022-12-16T00:06:10;1.50;99.90
25214;DHT22;13160;51.834;4.706;2022-12-16T00:08:39;1.50;99.90
25214;DHT22;13160;51.834;4.706;2022-12-16T00:11:08;1.50;99.90
25214;DHT22;13160;51.834;4.706;2022-12-16T00:13:38;1.50;99.90
25214;DHT22;13160;51.834;4.706;2022-12-16T00:16:09;1.50;99.90
25214;DHT22;13160;51.834;4.706;2022-12-16T00:18:39;1.60;99.90
25214;DHT22;13160;51.834;4.706;2022-12-16T00:21:08;1.60;99.90
25214;DHT22;13160;51.834;4.706;2022-12-16T00:23:39;1.60;99.90
25214;DHT22;13160;51.834;4.706;2022-12-16T00:26:09;1.60;99.90
25214;DHT22;13160;51.834;4.706;2022-12-16T00:28:39;1.60;99.90
25214;DHT22;13160;51.834;4.706;2022-12-16T00:31:09;1.60;99.90
25214;DHT22;13160;51.834;4.706;2022-12-16T00:33:38;1.60;99.90
25214;DHT22;13160;51.834;4.706;2022-12-16T00:36:08;1.60;99.90
25214;DHT22;13160;51.834;4.706;2022-12-16T00:38:36;1.70;99.90
25214;DHT22;13160;51.834;4.706;2022-12-16T00:41:06;1.70;99.90
25214;DHT22;13160;51.834;4.706;2022-12-16T00:43:35;1.70;99.90
25214;DHT22;13160;51.834;4.706;2022-12-16T00:46:03;1.70;99.90
25214;DHT22;13160;51.834;4.706;2022-12-16T00:48:32;1.70;99.90
25214;DHT22;13160;51.834;4.706;2022-12-16T00:51:00;1.70;99.90
25214;DHT22;13160;51.834;4.706;2022-12-16T00:53:29;1.70;99.90
25214;DHT22;13160;51.834;4.706;2022-12-16T00:56:03;1.80;99.90
25214;DHT22;13160;51.834;4.706;2022-12-16T00:58:34;1.70;99.90
25214;DHT22;13160;51.834;4.706;2022-12-16T01:01:03;1.80;99.90
25214;DHT22;13160;51.834;4.706;2022-12-16T01:03:33;1.80;99.90
25214;DHT22;13160;51.834;4.706;2022-12-16T01:06:06;1.70;99.90
25214;DHT22;13160;51.834;4.706;2022-12-16T01:08:35;1.70;99.90
25214;DHT22;13160;51.834;4.706;2022-12-16T01:11:04;1.70;99.90
25214;DHT22;13160;51.834;4.706;2022-12-16T01:13:34;1.70;99.90
25214;DHT22;13160;51.834;4.706;2022-12-16T01:16:03;1.70;99.90
25214;DHT22;13160;51.834;4.706;2022-12-16T01:18:32;1.70;99.90
25214;DHT22;13160;51.834;4.706;2022-12-16T01:21:04;1.70;99.90
25214;DHT22;13160;51.834;4.706;2022-12-16T01:23:34;1.70;99.90
25214;DHT22;13160;51.834;4.706;2022-12-16T01:26:03;1.70;99.90
25214;DHT22;13160;51.834;4.706;2022-12-16T01:28:31;1.60;99.90
25214;DHT22;13160;51.834;4.706;2022-12-16T01:31:01;1.60;99.90
25214;DHT22;13160;51.834;4.706;2022-12-16T01:33:31;1.60;99.90
25214;DHT22;13160;51.834;4.706;2022-12-16T01:36:01;1.60;99.90
25214;DHT22;13160;51.834;4.706;2022-12-16T01:38:31;1.60;99.90
25214;DHT22;13160;51.834;4.706;2022-12-16T01:41:01;1.60;99.90
25214;DHT22;13160;51.834;4.706;2022-12-16T01:43:32;1.60;99.90
25214;DHT22;13160;51.834;4.706;2022-12-16T01:46:07;1.60;99.90
25214;DHT22;13160;51.834;4.706;2022-12-16T01:48:44;1.60;99.90
25214;DHT22;13160;51.834;4.706;2022-12-16T01:51:19;1.60;99.90
25214;DHT22;13160;51.834;4.706;2022-12-16T01:53:52;1.60;99.90
25214;DHT22;13160;51.834;4.706;2022-12-16T01:56:23;1.50;99.90
25214;DHT22;13160;51.834;4.706;2022-12-16T01:58:54;1.50;99.90
25214;DHT22;13160;51.834;4.706;2022-12-16T02:01:24;1.50;99.90
25214;DHT22;13160;51.834;4.706;2022-12-16T02:03:55;1.50;99.90
25214;DHT22;13160;51.834;4.706;2022-12-16T02:06:27;1.50;99.90
25214;DHT22;13160;51.834;4.706;2022-12-16T02:09:01;1.50;99.90
25214;DHT22;13160;51.834;4.706;2022-12-16T02:12:08;1.40;99.90
25214;DHT22;13160;51.834;4.706;2022-12-16T02:15:00;1.40;99.90
25214;DHT22;13160;51.834;4.706;2022-12-16T02:17:43;1.40;99.90
25214;DHT22;13160;51.834;4.706;2022-12-16T02:20:41;1.40;99.90
25214;DHT22;13160;51.834;4.706;2022-12-16T02:23:48;1.30;99.90
25214;DHT22;13160;51.834;4.706;2022-12-16T02:33:30;1.20;99.90
25214;DHT22;13160;51.834;4.706;2022-12-16T02:36:09;1.10;99.90
25214;DHT22;13160;51.834;4.706;2022-12-16T02:38:46;1.10;99.90
25214;DHT22;13160;51.834;4.706;2022-12-16T02:41:28;1.10;99.90
25214;DHT22;13160;51.834;4.706;2022-12-16T02:44:02;1.10;99.90
25214;DHT22;13160;51.834;4.706;2022-12-16T02:46:38;1.10;99.90
25214;DHT22;13160;51.834;4.706;2022-12-16T02:52:23;1.10;99.90
25214;DHT22;13160;51.834;4.706;2022-12-16T02:54:54;1.10;99.90
25214;DHT22;13160;51.834;4.706;2022-12-16T03:00:21;1.10;99.90
25214;DHT22;13160;51.834;4.706;2022-12-16T03:02:55;1.00;99.90
25214;DHT22;13160;51.834;4.706;2022-12-16T03:05:30;1.00;99.90
25214;DHT22;13160;51.834;4.706;2022-12-16T03:08:04;1.00;99.90
25214;DHT22;13160;51.834;4.706;2022-12-16T03:10:41;1.00;99.90
25214;DHT22;13160;51.834;4.706;2022-12-16T03:13:13;1.00;99.90
25214;DHT22;13160;51.834;4.706;2022-12-16T03:15:47;1.00;99.90
25214;DHT22;13160;51.834;4.706;2022-12-16T03:18:19;1.00;99.90
25214;DHT22;13160;51.834;4.706;2022-12-16T03:20:51;0.90;99.90
25214;DHT22;13160;51.834;4.706;2022-12-16T03:23:26;0.90;99.90
25214;DHT22;13160;51.834;4.706;2022-12-16T03:26:02;0.90;99.90
25214;DHT22;13160;51.834;4.706;2022-12-16T03:28:41;0.90;99.90
25214;DHT22;13160;51.834;4.706;2022-12-16T03:31:22;0.90;99.90
25214;DHT22;13160;51.834;4.706;2022-12-16T03:34:00;0.80;99.90
25214;DHT22;13160;51.834;4.706;2022-12-16T03:36:34;0.80;99.90
25214;DHT22;13160;51.834;4.706;2022-12-16T03:39:06;0.80;99.90
25214;DHT22;13160;51.834;4.706;2022-12-16T03:41:35;0.80;99.90
25214;DHT22;13160;51.834;4.706;2022-12-16T03:44:06;0.80;99.90
25214;DHT22;13160;51.834;4.706;2022-12-16T03:46:35;0.80;99.90
25214;DHT22;13160;51.834;4.706;2022-12-16T03:49:05;0.80;99.90
25214;DHT22;13160;51.834;4.706;2022-12-16T03:51:33;0.80;99.90
25214;DHT22;13160;51.834;4.706;2022-12-16T03:54:02;0.80;99.90
25214;DHT22;13160;51.834;4.706;2022-12-16T03:56:30;0.80;99.90
25214;DHT22;13160;51.834;4.706;2022-12-16T03:58:58;0.80;99.90
25214;DHT22;13160;51.834;4.706;2022-12-16T04:01:26;0.80;99.90
25214;DHT22;13160;51.834;4.706;2022-12-16T04:03:55;0.80;99.90
25214;DHT22;13160;51.834;4.706;2022-12-16T04:06:25;0.70;99.90
25214;DHT22;13160;51.834;4.706;2022-12-16T04:08:53;0.80;99.90
25214;DHT22;13160;51.834;4.706;2022-12-16T04:11:21;0.80;99.90
25214;DHT22;13160;51.834;4.706;2022-12-16T04:14:07;0.70;99.90
25214;DHT22;13160;51.834;4.706;2022-12-16T04:16:54;0.70;99.90
25214;DHT22;13160;51.834;4.706;2022-12-16T04:19:42;0.70;99.90
25214;DHT22;13160;51.834;4.706;2022-12-16T04:22:33;0.70;99.90
25214;DHT22;13160;51.834;4.706;2022-12-16T04:25:23;0.70;99.90
25214;DHT22;13160;51.834;4.706;2022-12-16T04:27:52;0.70;99.90
25214;DHT22;13160;51.834;4.706;2022-12-16T04:30:21;0.60;99.90
25214;DHT22;13160;51.834;4.706;2022-12-16T04:32:51;0.60;99.90
25214;DHT22;13160;51.834;4.706;2022-12-16T04:35:38;0.60;99.90
25214;DHT22;13160;51.834;4.706;2022-12-16T04:38:29;0.50;99.90
25214;DHT22;13160;51.834;4.706;2022-12-16T04:41:15;0.50;99.90
25214;DHT22;13160;51.834;4.706;2022-12-16T04:44:01;0.50;99.90
25214;DHT22;13160;51.834;4.706;2022-12-16T04:46:47;0.40;99.90
25214;DHT22;13160;51.834;4.706;2022-12-16T04:49:33;0.40;99.90
25214;DHT22;13160;51.834;4.706;2022-12-16T04:52:19;0.30;99.90
25214;DHT22;13160;51.834;4.706;2022-12-16T04:55:08;0.30;99.90
25214;DHT22;13160;51.834;4.706;2022-12-16T04:58:09;0.30;99.90
25214;DHT22;13160;51.834;4.706;2022-12-16T05:00:55;0.30;99.90
25214;DHT22;13160;51.834;4.706;2022-12-16T05:03:41;0.30;99.90
25214;DHT22;13160;51.834;4.706;2022-12-16T05:06:27;0.20;99.90
25214;DHT22;13160;51.834;4.706;2022-12-16T05:09:12;0.20;99.90
25214;DHT22;13160;51.834;4.706;2022-12-16T05:11:59;0.20;99.90
25214;DHT22;13160;51.834;4.706;2022-12-16T05:14:46;0.10;99.90
25214;DHT22;13160;51.834;4.706;2022-12-16T05:17:32;0.10;99.90
25214;DHT22;13160;51.834;4.706;2022-12-16T05:20:18;0.10;99.90
25214;DHT22;13160;51.834;4.706;2022-12-16T05:23:04;0.10;99.90
25214;DHT22;13160;51.834;4.706;2022-12-16T05:25:50;0.10;99.90
25214;DHT22;13160;51.834;4.706;2022-12-16T05:28:37;0.00;99.90
25214;DHT22;13160;51.834;4.706;2022-12-16T05:31:22;0.00;99.90
25214;DHT22;13160;51.834;4.706;2022-12-16T05:34:09;0.00;99.90
25214;DHT22;13160;51.834;4.706;2022-12-16T05:36:54;0.00;99.90
25214;DHT22;13160;51.834;4.706;2022-12-16T05:39:40;-0.10;99.90
25214;DHT22;13160;51.834;4.706;2022-12-16T05:42:25;-0.10;99.90
25214;DHT22;13160;51.834;4.706;2022-12-16T05:45:09;-0.10;99.90
25214;DHT22;13160;51.834;4.706;2022-12-16T05:47:55;-0.10;99.90
25214;DHT22;13160;51.834;4.706;2022-12-16T05:50:40;-0.20;99.90
25214;DHT22;13160;51.834;4.706;2022-12-16T05:53:26;-0.20;99.90
25214;DHT22;13160;51.834;4.706;2022-12-16T05:56:20;-0.20;99.90
25214;DHT22;13160;51.834;4.706;2022-12-16T05:59:07;-0.30;99.90
25214;DHT22;13160;51.834;4.706;2022-12-16T06:01:54;-0.30;99.90
25214;DHT22;13160;51.834;4.706;2022-12-16T06:04:40;-0.30;99.90
25214;DHT22;13160;51.834;4.706;2022-12-16T06:07:26;-0.30;99.90
25214;DHT22;13160;51.834;4.706;2022-12-16T06:10:11;-0.30;99.90
25214;DHT22;13160;51.834;4.706;2022-12-16T06:12:57;-0.40;99.90
25214;DHT22;13160;51.834;4.706;2022-12-16T06:15:44;-0.40;99.90
25214;DHT22;13160;51.834;4.706;2022-12-16T06:18:36;-0.40;99.90
25214;DHT22;13160;51.834;4.706;2022-12-16T06:21:22;-0.50;99.90
25214;DHT22;13160;51.834;4.706;2022-12-16T06:24:08;-0.50;99.90
25214;DHT22;13160;51.834;4.706;2022-12-16T06:26:53;-0.50;99.90
25214;DHT22;13160;51.834;4.706;2022-12-16T06:29:39;-0.50;99.90
25214;DHT22;13160;51.834;4.706;2022-12-16T06:32:25;-0.60;99.90
25214;DHT22;13160;51.834;4.706;2022-12-16T06:35:12;-0.60;99.90
25214;DHT22;13160;51.834;4.706;2022-12-16T06:37:59;-0.60;99.90
25214;DHT22;13160;51.834;4.706;2022-12-16T06:40:44;-0.60;99.90
25214;DHT22;13160;51.834;4.706;2022-12-16T06:43:30;-0.60;99.90
25214;DHT22;13160;51.834;4.706;2022-12-16T06:46:16;-0.60;99.90
25214;DHT22;13160;51.834;4.706;2022-12-16T06:49:03;-0.60;99.90
25214;DHT22;13160;51.834;4.706;2022-12-16T06:51:50;-0.60;99.90
25214;DHT22;13160;51.834;4.706;2022-12-16T06:54:36;-0.60;99.90
25214;DHT22;13160;51.834;4.706;2022-12-16T06:57:22;-0.70;99.90
25214;DHT22;13160;51.834;4.706;2022-12-16T07:00:09;-0.70;99.90
25214;DHT22;13160;51.834;4.706;2022-12-16T07:02:55;-0.70;99.90
25214;DHT22;13160;51.834;4.706;2022-12-16T07:05:42;-0.70;99.90
25214;DHT22;13160;51.834;4.706;2022-12-16T07:08:29;-0.70;99.90
25214;DHT22;13160;51.834;4.706;2022-12-16T07:11:15;-0.70;99.90
25214;DHT22;13160;51.834;4.706;2022-12-16T07:14:01;-0.70;99.90
25214;DHT22;13160;51.834;4.706;2022-12-16T07:16:48;-0.70;99.90
25214;DHT22;13160;51.834;4.706;2022-12-16T07:19:42;-0.70;99.90
25214;DHT22;13160;51.834;4.706;2022-12-16T07:22:28;-0.70;99.90
25214;DHT22;13160;51.834;4.706;2022-12-16T07:25:28;-0.80;99.90
25214;DHT22;13160;51.834;4.706;2022-12-16T07:28:14;-0.70;99.90
25214;DHT22;13160;51.834;4.706;2022-12-16T07:31:00;-0.80;99.90
25214;DHT22;13160;51.834;4.706;2022-12-16T07:33:46;-0.80;99.90
25214;DHT22;13160;51.834;4.706;2022-12-16T07:36:32;-0.80;99.90
25214;DHT22;13160;51.834;4.706;2022-12-16T07:39:18;-0.80;99.90
25214;DHT22;13160;51.834;4.706;2022-12-16T07:42:06;-0.80;99.90
25214;DHT22;13160;51.834;4.706;2022-12-16T07:44:52;-0.80;99.90
25214;DHT22;13160;51.834;4.706;2022-12-16T07:47:45;-0.80;99.90
25214;DHT22;13160;51.834;4.706;2022-12-16T07:50:31;-0.90;99.90
25214;DHT22;13160;51.834;4.706;2022-12-16T07:53:18;-0.90;99.90
25214;DHT22;13160;51.834;4.706;2022-12-16T07:56:06;-0.90;99.90
25214;DHT22;13160;51.834;4.706;2022-12-16T07:58:54;-0.90;99.90
25214;DHT22;13160;51.834;4.706;2022-12-16T08:01:40;-0.90;99.90
25214;DHT22;13160;51.834;4.706;2022-12-16T08:04:26;-0.90;99.90
25214;DHT22;13160;51.834;4.706;2022-12-16T08:07:12;-0.90;99.90
25214;DHT22;13160;51.834;4.706;2022-12-16T08:09:58;-0.90;99.90
25214;DHT22;13160;51.834;4.706;2022-12-16T08:12:44;-0.90;99.90
25214;DHT22;13160;51.834;4.706;2022-12-16T08:15:32;-0.90;99.90
25214;DHT22;13160;51.834;4.706;2022-12-16T08:18:18;-0.90;99.90
25214;DHT22;13160;51.834;4.706;2022-12-16T08:21:04;-0.90;99.90
25214;DHT22;13160;51.834;4.706;2022-12-16T08:23:50;-1.00;99.90
25214;DHT22;13160;51.834;4.706;2022-12-16T08:26:36;-0.90;99.90
25214;DHT22;13160;51.834;4.706;2022-12-16T08:29:22;-0.90;99.90
25214;DHT22;13160;51.834;4.706;2022-12-16T08:32:12;-0.90;99.90
25214;DHT22;13160;51.834;4.706;2022-12-16T08:34:58;-0.90;99.90
25214;DHT22;13160;51.834;4.706;2022-12-16T08:37:44;-0.90;99.90
25214;DHT22;13160;51.834;4.706;2022-12-16T08:40:37;-0.90;99.90
25214;DHT22;13160;51.834;4.706;2022-12-16T08:43:23;-0.90;99.90
25214;DHT22;13160;51.834;4.706;2022-12-16T08:46:10;-0.90;99.90
25214;DHT22;13160;51.834;4.706;2022-12-16T08:48:57;-0.90;99.90
25214;DHT22;13160;51.834;4.706;2022-12-16T08:51:43;-0.80;99.90
25214;DHT22;13160;51.834;4.706;2022-12-16T08:54:29;-0.80;99.90
25214;DHT22;13160;51.834;4.706;2022-12-16T08:57:15;-0.80;99.90
25214;DHT22;13160;51.834;4.706;2022-12-16T09:00:02;-0.80;99.90
25214;DHT22;13160;51.834;4.706;2022-12-16T09:02:51;-0.70;99.90
25214;DHT22;13160;51.834;4.706;2022-12-16T09:05:41;-0.70;99.90
25214;DHT22;13160;51.834;4.706;2022-12-16T09:08:27;-0.70;99.90
25214;DHT22;13160;51.834;4.706;2022-12-16T09:11:13;-0.70;99.90
25214;DHT22;13160;51.834;4.706;2022-12-16T09:13:58;-0.70;99.90
25214;DHT22;13160;51.834;4.706;2022-12-16T09:16:44;-0.70;99.90
25214;DHT22;13160;51.834;4.706;2022-12-16T09:19:30;-0.70;99.90
25214;DHT22;13160;51.834;4.706;2022-12-16T09:22:18;-0.70;99.90
25214;DHT22;13160;51.834;4.706;2022-12-16T09:25:04;-0.60;99.90
25214;DHT22;13160;51.834;4.706;2022-12-16T09:27:51;-0.60;99.90
25214;DHT22;13160;51.834;4.706;2022-12-16T09:30:37;-0.50;99.90
25214;DHT22;13160;51.834;4.706;2022-12-16T09:33:23;-0.50;99.90
25214;DHT22;13160;51.834;4.706;2022-12-16T09:36:09;-0.50;99.90
25214;DHT22;13160;51.834;4.706;2022-12-16T09:38:56;-0.40;99.90
25214;DHT22;13160;51.834;4.706;2022-12-16T09:41:44;-0.30;99.90
25214;DHT22;13160;51.834;4.706;2022-12-16T09:44:46;-0.30;99.90
25214;DHT22;13160;51.834;4.706;2022-12-16T09:47:41;-0.20;99.90
25214;DHT22;13160;51.834;4.706;2022-12-16T09:50:30;-0.10;99.90
25214;DHT22;13160;51.834;4.706;2022-12-16T09:53:20;0.00;99.90
25214;DHT22;13160;51.834;4.706;2022-12-16T09:56:14;0.00;99.90
25214;DHT22;13160;51.834;4.706;2022-12-16T09:59:06;0.10;99.90
25214;DHT22;13160;51.834;4.706;2022-12-16T10:01:56;0.20;99.90
25214;DHT22;13160;51.834;4.706;2022-12-16T10:04:43;0.30;99.90
25214;DHT22;13160;51.834;4.706;2022-12-16T10:07:35;0.40;99.90
25214;DHT22;13160;51.834;4.706;2022-12-16T10:10:32;0.50;99.90
25214;DHT22;13160;51.834;4.706;2022-12-16T10:13:30;0.60;99.90
25214;DHT22;13160;51.834;4.706;2022-12-16T10:16:23;0.70;99.90
25214;DHT22;13160;51.834;4.706;2022-12-16T10:19:25;0.70;99.90
25214;DHT22;13160;51.834;4.706;2022-12-16T10:22:22;0.90;99.90
25214;DHT22;13160;51.834;4.706;2022-12-16T10:25:15;0.90;99.90
25214;DHT22;13160;51.834;4.706;2022-12-16T10:28:13;1.00;99.90
25214;DHT22;13160;51.834;4.706;2022-12-16T10:31:14;1.10;99.90
25214;DHT22;13160;51.834;4.706;2022-12-16T10:34:04;1.20;99.90
25214;DHT22;13160;51.834;4.706;2022-12-16T10:36:55;1.20;99.90
25214;DHT22;13160;51.834;4.706;2022-12-16T10:39:54;1.30;99.90
25214;DHT22;13160;51.834;4.706;2022-12-16T10:42:47;1.40;99.90
25214;DHT22;13160;51.834;4.706;2022-12-16T10:45:39;1.50;99.90
25214;DHT22;13160;51.834;4.706;2022-12-16T10:48:30;1.50;99.90
25214;DHT22;13160;51.834;4.706;2022-12-16T10:51:24;1.60;99.90
25214;DHT22;13160;51.834;4.706;2022-12-16T10:54:29;1.70;99.90
25214;DHT22;13160;51.834;4.706;2022-12-16T10:57:26;1.80;99.90
25214;DHT22;13160;51.834;4.706;2022-12-16T11:00:19;1.90;99.90
25214;DHT22;13160;51.834;4.706;2022-12-16T11:03:17;1.90;99.90
25214;DHT22;13160;51.834;4.706;2022-12-16T11:06:07;2.00;99.90
25214;DHT22;13160;51.834;4.706;2022-12-16T11:08:52;2.10;99.90
25214;DHT22;13160;51.834;4.706;2022-12-16T11:11:39;2.20;99.90
25214;DHT22;13160;51.834;4.706;2022-12-16T11:14:27;2.30;99.90
25214;DHT22;13160;51.834;4.706;2022-12-16T11:17:34;2.30;99.90
25214;DHT22;13160;51.834;4.706;2022-12-16T11:20:24;2.40;99.90
25214;DHT22;13160;51.834;4.706;2022-12-16T11:23:27;2.50;99.90
25214;DHT22;13160;51.834;4.706;2022-12-16T11:26:15;2.50;99.90
25214;DHT22;13160;51.834;4.706;2022-12-16T11:29:07;2.60;99.90
25214;DHT22;13160;51.834;4.706;2022-12-16T11:32:11;2.70;99.90
25214;DHT22;13160;51.834;4.706;2022-12-16T11:35:08;2.70;99.90
25214;DHT22;13160;51.834;4.706;2022-12-16T11:37:57;2.80;99.90
25214;DHT22;13160;51.834;4.706;2022-12-16T11:40:45;2.80;99.90
25214;DHT22;13160;51.834;4.706;2022-12-16T11:43:31;2.90;99.90
25214;DHT22;13160;51.834;4.706;2022-12-16T11:46:23;3.00;99.90
25214;DHT22;13160;51.834;4.706;2022-12-16T11:49:25;3.00;99.90
25214;DHT22;13160;51.834;4.706;2022-12-16T11:52:16;3.10;99.90
25214;DHT22;13160;51.834;4.706;2022-12-16T11:55:12;3.10;99.90
25214;DHT22;13160;51.834;4.706;2022-12-16T11:58:27;3.20;99.90
25214;DHT22;13160;51.834;4.706;2022-12-16T12:01:21;3.30;99.90
25214;DHT22;13160;51.834;4.706;2022-12-16T12:04:12;3.30;99.90
25214;DHT22;13160;51.834;4.706;2022-12-16T12:07:16;3.40;99.90
25214;DHT22;13160;51.834;4.706;2022-12-16T12:10:24;3.40;99.90
25214;DHT22;13160;51.834;4.706;2022-12-16T12:13:39;3.40;99.90
25214;DHT22;13160;51.834;4.706;2022-12-16T12:16:35;3.50;99.90
25214;DHT22;13160;51.834;4.706;2022-12-16T12:19:33;3.60;99.90
25214;DHT22;13160;51.834;4.706;2022-12-16T12:22:32;3.60;99.90
25214;DHT22;13160;51.834;4.706;2022-12-16T12:25:24;3.60;99.90
25214;DHT22;13160;51.834;4.706;2022-12-16T12:28:25;3.60;99.90
25214;DHT22;13160;51.834;4.706;2022-12-16T12:31:38;3.70;99.90
25214;DHT22;13160;51.834;4.706;2022-12-16T12:34:34;3.70;99.90
25214;DHT22;13160;51.834;4.706;2022-12-16T12:37:27;3.80;99.90
25214;DHT22;13160;51.834;4.706;2022-12-16T12:40:25;3.80;99.90
25214;DHT22;13160;51.834;4.706;2022-12-16T12:43:25;3.90;99.90
25214;DHT22;13160;51.834;4.706;2022-12-16T12:46:25;3.90;99.90
25214;DHT22;13160;51.834;4.706;2022-12-16T12:49:22;3.90;99.90
25214;DHT22;13160;51.834;4.706;2022-12-16T12:52:18;3.90;99.90
25214;DHT22;13160;51.834;4.706;2022-12-16T12:55:17;4.00;99.90
25214;DHT22;13160;51.834;4.706;2022-12-16T12:58:07;4.00;99.90
25214;DHT22;13160;51.834;4.706;2022-12-16T13:00:56;4.00;99.90
25214;DHT22;13160;51.834;4.706;2022-12-16T13:03:47;4.00;99.90
25214;DHT22;13160;51.834;4.706;2022-12-16T13:06:36;4.00;99.90
25214;DHT22;13160;51.834;4.706;2022-12-16T13:09:29;4.00;99.90
25214;DHT22;13160;51.834;4.706;2022-12-16T13:12:29;4.10;99.90
25214;DHT22;13160;51.834;4.706;2022-12-16T13:15:31;4.10;99.90
25214;DHT22;13160;51.834;4.706;2022-12-16T13:18:21;4.10;99.90
25214;DHT22;13160;51.834;4.706;2022-12-16T13:21:56;4.10;99.90
25214;DHT22;13160;51.834;4.706;2022-12-16T13:24:48;4.10;99.90
25214;DHT22;13160;51.834;4.706;2022-12-16T13:27:54;4.10;99.90
25214;DHT22;13160;51.834;4.706;2022-12-16T13:30:58;4.10;99.90
25214;DHT22;13160;51.834;4.706;2022-12-16T13:33:52;4.10;99.90
25214;DHT22;13160;51.834;4.706;2022-12-16T13:36:39;4.10;99.90
25214;DHT22;13160;51.834;4.706;2022-12-16T13:39:29;4.10;99.90
25214;DHT22;13160;51.834;4.706;2022-12-16T13:42:53;4.10;99.90
25214;DHT22;13160;51.834;4.706;2022-12-16T13:45:41;4.10;99.90
25214;DHT22;13160;51.834;4.706;2022-12-16T13:48:31;4.10;99.90
25214;DHT22;13160;51.834;4.706;2022-12-16T13:51:54;4.10;99.90
25214;DHT22;13160;51.834;4.706;2022-12-16T13:54:50;4.10;99.90
25214;DHT22;13160;51.834;4.706;2022-12-16T13:57:41;4.10;99.90
25214;DHT22;13160;51.834;4.706;2022-12-16T14:00:28;4.10;99.90
25214;DHT22;13160;51.834;4.706;2022-12-16T14:03:21;4.10;99.90
25214;DHT22;13160;51.834;4.706;2022-12-16T14:06:21;4.10;99.90
25214;DHT22;13160;51.834;4.706;2022-12-16T14:09:23;4.00;99.90
25214;DHT22;13160;51.834;4.706;2022-12-16T14:12:21;4.00;99.90
25214;DHT22;13160;51.834;4.706;2022-12-16T14:15:30;4.00;99.90
25214;DHT22;13160;51.834;4.706;2022-12-16T14:18:30;4.00;99.90
25214;DHT22;13160;51.834;4.706;2022-12-16T14:21:29;3.90;99.90
25214;DHT22;13160;51.834;4.706;2022-12-16T14:24:22;3.90;99.90
25214;DHT22;13160;51.834;4.706;2022-12-16T14:27:16;3.90;99.90
25214;DHT22;13160;51.834;4.706;2022-12-16T14:30:15;3.90;99.90
25214;DHT22;13160;51.834;4.706;2022-12-16T14:33:24;3.90;99.90
25214;DHT22;13160;51.834;4.706;2022-12-16T14:36:20;3.80;99.90
25214;DHT22;13160;51.834;4.706;2022-12-16T14:39:11;3.80;99.90
25214;DHT22;13160;51.834;4.706;2022-12-16T14:41:58;3.70;99.90
25214;DHT22;13160;51.834;4.706;2022-12-16T14:44:46;3.70;99.90
25214;DHT22;13160;51.834;4.706;2022-12-16T14:47:32;3.70;99.90
25214;DHT22;13160;51.834;4.706;2022-12-16T14:50:21;3.60;99.90
25214;DHT22;13160;51.834;4.706;2022-12-16T14:53:15;3.60;99.90
25214;DHT22;13160;51.834;4.706;2022-12-16T14:56:24;3.60;99.90
25214;DHT22;13160;51.834;4.706;2022-12-16T14:59:16;3.60;99.90
25214;DHT22;13160;51.834;4.706;2022-12-16T15:02:15;3.50;99.90
25214;DHT22;13160;51.834;4.706;2022-12-16T15:05:09;3.50;99.90
25214;DHT22;13160;51.834;4.706;2022-12-16T15:07:55;3.50;99.90
25214;DHT22;13160;51.834;4.706;2022-12-16T15:10:42;3.40;99.90
25214;DHT22;13160;51.834;4.706;2022-12-16T15:13:28;3.40;99.90
25214;DHT22;13160;51.834;4.706;2022-12-16T15:16:17;3.40;99.90
25214;DHT22;13160;51.834;4.706;2022-12-16T15:19:10;3.30;99.90
25214;DHT22;13160;51.834;4.706;2022-12-16T15:22:03;3.30;99.90
25214;DHT22;13160;51.834;4.706;2022-12-16T15:24:49;3.30;99.90
25214;DHT22;13160;51.834;4.706;2022-12-16T15:27:37;3.20;99.90
25214;DHT22;13160;51.834;4.706;2022-12-16T15:30:36;3.20;99.90
25214;DHT22;13160;51.834;4.706;2022-12-16T15:38:49;3.00;99.90
25214;DHT22;13160;51.834;4.706;2022-12-16T15:41:36;3.00;99.90
25214;DHT22;13160;51.834;4.706;2022-12-16T15:44:24;2.90;99.90
25214;DHT22;13160;51.834;4.706;2022-12-16T15:47:20;2.90;99.90
25214;DHT22;13160;51.834;4.706;2022-12-16T15:50:14;2.90;99.90
25214;DHT22;13160;51.834;4.706;2022-12-16T15:53:14;2.80;99.90
25214;DHT22;13160;51.834;4.706;2022-12-16T15:56:16;2.80;99.90
25214;DHT22;13160;51.834;4.706;2022-12-16T15:59:29;2.70;99.90
25214;DHT22;13160;51.834;4.706;2022-12-16T16:02:18;2.60;99.90
25214;DHT22;13160;51.834;4.706;2022-12-16T16:05:11;2.60;99.90
25214;DHT22;13160;51.834;4.706;2022-12-16T16:08:06;2.60;99.90
25214;DHT22;13160;51.834;4.706;2022-12-16T16:10:53;2.50;99.90
25214;DHT22;13160;51.834;4.706;2022-12-16T16:13:41;2.50;99.90
25214;DHT22;13160;51.834;4.706;2022-12-16T16:16:36;2.40;99.90
25214;DHT22;13160;51.834;4.706;2022-12-16T16:19:26;2.30;99.90
25214;DHT22;13160;51.834;4.706;2022-12-16T16:22:13;2.20;99.90
25214;DHT22;13160;51.834;4.706;2022-12-16T16:25:01;2.20;99.90
25214;DHT22;13160;51.834;4.706;2022-12-16T16:27:47;2.10;99.90
25214;DHT22;13160;51.834;4.706;2022-12-16T16:30:34;2.10;99.90
25214;DHT22;13160;51.834;4.706;2022-12-16T16:33:20;2.00;99.90
25214;DHT22;13160;51.834;4.706;2022-12-16T16:36:12;2.00;99.90
25214;DHT22;13160;51.834;4.706;2022-12-16T16:38:59;1.90;99.90
25214;DHT22;13160;51.834;4.706;2022-12-16T16:41:45;1.80;99.90
25214;DHT22;13160;51.834;4.706;2022-12-16T16:44:31;1.80;99.90
25214;DHT22;13160;51.834;4.706;2022-12-16T16:47:18;1.70;99.90
25214;DHT22;13160;51.834;4.706;2022-12-16T16:50:05;1.60;99.90
25214;DHT22;13160;51.834;4.706;2022-12-16T16:52:51;1.50;99.90
25214;DHT22;13160;51.834;4.706;2022-12-16T16:55:39;1.40;99.90
25214;DHT22;13160;51.834;4.706;2022-12-16T16:58:30;1.40;99.90
25214;DHT22;13160;51.834;4.706;2022-12-16T17:01:18;1.30;99.90
25214;DHT22;13160;51.834;4.706;2022-12-16T17:04:06;1.30;99.90
25214;DHT22;13160;51.834;4.706;2022-12-16T17:06:54;1.20;99.90
25214;DHT22;13160;51.834;4.706;2022-12-16T17:09:40;1.10;99.90
25214;DHT22;13160;51.834;4.706;2022-12-16T17:12:27;1.10;99.90
25214;DHT22;13160;51.834;4.706;2022-12-16T17:15:16;1.00;99.90
25214;DHT22;13160;51.834;4.706;2022-12-16T17:18:04;1.00;99.90
25214;DHT22;13160;51.834;4.706;2022-12-16T17:20:52;0.90;99.90
25214;DHT22;13160;51.834;4.706;2022-12-16T17:23:38;0.90;99.90
25214;DHT22;13160;51.834;4.706;2022-12-16T17:26:25;0.80;99.90
25214;DHT22;13160;51.834;4.706;2022-12-16T17:29:16;0.80;99.90
25214;DHT22;13160;51.834;4.706;2022-12-16T17:32:04;0.70;99.90
25214;DHT22;13160;51.834;4.706;2022-12-16T17:34:51;0.60;99.90
25214;DHT22;13160;51.834;4.706;2022-12-16T17:37:38;0.60;99.90
25214;DHT22;13160;51.834;4.706;2022-12-16T17:40:25;0.50;99.90
25214;DHT22;13160;51.834;4.706;2022-12-16T17:43:11;0.50;99.90
25214;DHT22;13160;51.834;4.706;2022-12-16T17:46:00;0.40;99.90
25214;DHT22;13160;51.834;4.706;2022-12-16T17:48:51;0.40;99.90
25214;DHT22;13160;51.834;4.706;2022-12-16T17:51:37;0.30;99.90
25214;DHT22;13160;51.834;4.706;2022-12-16T17:54:25;0.30;99.90
25214;DHT22;13160;51.834;4.706;2022-12-16T17:57:11;0.20;99.90
25214;DHT22;13160;51.834;4.706;2022-12-16T17:59:56;0.20;99.90
25214;DHT22;13160;51.834;4.706;2022-12-16T18:02:43;0.10;99.90